32  °F
Temperature
0  °C
Temperature
-1  °C
 Dewpoint
30  °F
  Dewpoint
93  %
 Humidity
  Temperature
13  mph
Wind Speed
11  kts
Wind Speed
21  km/h
Wind Speed
5.8  m/s
Wind Speed
70°
East North
East

Wind Speed
Data Offline
Pressure 29.62 (inHG) - 1003.02 (mb)
Visibility 1.2 (mi) - 2.0 (km)

Sky Conditions
KPCW
Location Carl R Keller Field 5 mi (8.05 km)
Metar :KPCW 261135Z AUTO 07011KT 1 1/2SM -UP 00/M01 A2962 RMK AO2
Tue 26th January 07:35 am

Nearest Airport
https://www.checkwx.com/weather/KPCW
  Metar Aviation API Data Provided by https://www.checkwx.com/ Original CSS/SVG/PHP scripts by weather34.com © 2015-2021